createdAt,value
2023-03-02T00:02:49.404Z,21.33
2023-03-02T00:05:52.118Z,22.30
2023-03-02T00:08:54.057Z,19.63
2023-03-02T00:11:57.778Z,20.77
2023-03-02T00:14:59.153Z,21.98
2023-03-02T00:18:01.853Z,20.17
2023-03-02T00:21:03.458Z,19.27
2023-03-02T00:24:06.975Z,20.02
2023-03-02T00:27:08.939Z,21.10
2023-03-02T00:30:13.216Z,20.27
2023-03-02T00:33:16.240Z,24.10
2023-03-02T00:36:19.780Z,21.07
2023-03-02T00:39:22.341Z,22.73
2023-03-02T00:42:24.406Z,23.23
2023-03-02T00:45:27.057Z,20.77
2023-03-02T00:48:28.352Z,23.43
2023-03-02T00:51:30.903Z,25.57
2023-03-02T00:54:32.381Z,21.25
2023-03-02T00:57:35.610Z,22.90
2023-03-02T01:00:38.442Z,21.63
2023-03-02T01:03:39.821Z,23.90
2023-03-02T01:06:47.913Z,21.50
2023-03-02T01:09:49.186Z,19.23
2023-03-02T01:12:52.441Z,20.35
2023-03-02T01:16:01.684Z,21.23
2023-03-02T01:19:03.062Z,19.33
2023-03-02T01:25:26.995Z,18.27
2023-03-02T01:28:28.970Z,18.85
2023-03-02T01:31:32.380Z,18.50
2023-03-02T01:34:33.767Z,17.57
2023-03-02T01:37:36.280Z,19.10
2023-03-02T01:45:01.169Z,18.38
2023-03-02T01:48:02.708Z,15.95
2023-03-02T01:51:06.442Z,22.97
2023-03-02T01:54:22.261Z,18.00
2023-03-02T01:57:29.311Z,15.10
2023-03-02T02:00:36.401Z,16.85
2023-03-02T02:03:38.619Z,17.38
2023-03-02T02:06:44.305Z,19.00
2023-03-02T02:09:49.138Z,18.13
2023-03-02T02:12:50.791Z,17.88
2023-03-02T02:15:52.735Z,17.88
2023-03-02T02:18:55.512Z,16.30
2023-03-02T02:21:56.936Z,16.03
2023-03-02T02:25:03.139Z,15.00
2023-03-02T02:28:10.533Z,18.48
2023-03-02T02:31:16.116Z,17.98
2023-03-02T02:34:23.456Z,17.95
2023-03-02T02:37:29.555Z,17.03
2023-03-02T02:40:44.299Z,17.77
2023-03-02T02:43:46.565Z,15.32
2023-03-02T02:46:47.908Z,17.80
2023-03-02T02:49:52.709Z,17.50
2023-03-02T02:52:59.307Z,19.60
2023-03-02T02:56:01.669Z,19.27
2023-03-02T02:59:11.076Z,18.30
2023-03-02T03:02:18.261Z,19.25
2023-03-02T03:05:19.604Z,15.82
2023-03-02T03:08:51.641Z,15.53
2023-03-02T03:11:56.050Z,16.70
2023-03-02T03:14:59.672Z,18.45
2023-03-02T03:18:01.144Z,18.20
2023-03-02T03:21:02.604Z,16.80
2023-03-02T03:24:04.690Z,18.77
2023-03-02T03:27:07.406Z,16.17
2023-03-02T03:30:11.162Z,15.20
2023-03-02T03:33:13.752Z,19.30
2023-03-02T03:36:15.355Z,17.00
2023-03-02T03:39:17.807Z,15.33
2023-03-02T03:42:19.310Z,16.23
2023-03-02T03:45:21.436Z,15.57
2023-03-02T03:48:22.978Z,17.52
2023-03-02T03:51:24.875Z,18.23
2023-03-02T03:54:26.323Z,16.47
2023-03-02T03:57:28.449Z,20.00
2023-03-02T04:00:30.732Z,15.52
2023-03-02T04:03:32.052Z,18.55
2023-03-02T04:06:34.083Z,17.60
2023-03-02T04:09:37.304Z,17.13
2023-03-02T04:12:40.318Z,17.87
2023-03-02T04:15:44.400Z,17.13
2023-03-02T04:18:47.219Z,18.77
2023-03-02T04:21:51.318Z,17.92
2023-03-02T04:24:52.899Z,16.30
2023-03-02T04:27:54.996Z,18.30
2023-03-02T04:30:57.019Z,15.18
2023-03-02T04:33:59.101Z,16.20
2023-03-02T04:37:00.622Z,18.88
2023-03-02T04:40:02.354Z,16.93
2023-03-02T04:43:03.832Z,16.30
2023-03-02T04:46:06.340Z,16.20
2023-03-02T04:49:08.005Z,17.88
2023-03-02T04:52:09.759Z,20.33
2023-03-02T04:55:17.978Z,17.93
2023-03-02T04:58:19.314Z,16.83
2023-03-02T05:01:21.731Z,19.40
2023-03-02T05:04:23.182Z,18.17
2023-03-02T05:07:24.497Z,19.10
2023-03-02T05:10:27.462Z,20.83
2023-03-02T05:13:28.942Z,19.13
2023-03-02T05:16:33.267Z,21.08
2023-03-02T05:19:34.903Z,23.90
2023-03-02T05:22:37.503Z,19.35
2023-03-02T05:25:39.133Z,17.60
2023-03-02T05:28:40.980Z,21.30
2023-03-02T05:31:44.680Z,22.98
2023-03-02T05:34:46.086Z,21.42
2023-03-02T05:37:47.731Z,23.25
2023-03-02T05:40:49.821Z,20.93
2023-03-02T05:43:51.370Z,21.60
2023-03-02T05:46:53.565Z,23.05
2023-03-02T05:49:55.316Z,21.05
2023-03-02T05:52:57.631Z,19.45
2023-03-02T05:55:58.937Z,22.50
2023-03-02T05:59:00.270Z,24.67
2023-03-02T06:02:03.724Z,22.50
2023-03-02T06:05:06.181Z,23.27
2023-03-02T06:08:07.800Z,26.45
2023-03-02T06:11:09.746Z,24.07
2023-03-02T06:14:11.072Z,22.63
2023-03-02T06:17:13.026Z,24.23
2023-03-02T06:20:15.352Z,23.92
2023-03-02T06:23:16.663Z,23.48
2023-03-02T06:26:17.980Z,25.10
2023-03-02T06:29:19.365Z,25.17
2023-03-02T06:32:21.684Z,24.48
2023-03-02T06:35:23.596Z,24.67
2023-03-02T06:38:25.181Z,23.05
2023-03-02T06:41:26.472Z,27.23
2023-03-02T06:44:27.849Z,21.87
2023-03-02T06:47:30.435Z,27.42
2023-03-02T06:50:32.486Z,27.30
2023-03-02T06:53:33.787Z,24.58
2023-03-02T06:56:35.517Z,25.97
2023-03-02T06:59:37.095Z,27.80
2023-03-02T07:02:39.079Z,25.92
2023-03-02T07:05:40.378Z,24.35
2023-03-02T07:08:41.999Z,26.08
2023-03-02T07:11:43.400Z,22.37
2023-03-02T07:14:44.707Z,27.97
2023-03-02T07:17:47.041Z,23.85
2023-03-02T07:20:48.337Z,26.13
2023-03-02T07:23:49.628Z,29.50
2023-03-02T07:26:50.947Z,29.30
2023-03-02T07:29:52.245Z,27.63
2023-03-02T07:32:54.197Z,27.75
2023-03-02T07:35:55.563Z,30.23
2023-03-02T07:38:57.145Z,26.02
2023-03-02T07:41:59.011Z,30.67
2023-03-02T07:45:00.457Z,28.83
2023-03-02T07:48:04.300Z,27.65
2023-03-02T07:51:06.518Z,28.02
2023-03-02T07:54:07.929Z,27.08
2023-03-02T07:57:09.354Z,24.93
2023-03-02T08:00:11.831Z,25.97
2023-03-02T08:03:13.866Z,26.27
2023-03-02T08:06:15.319Z,25.70
2023-03-02T08:09:17.157Z,25.95
2023-03-02T08:12:18.585Z,23.73
2023-03-02T08:15:19.907Z,25.97
2023-03-02T08:18:22.040Z,30.65
2023-03-02T08:21:25.621Z,27.30
2023-03-02T08:24:27.032Z,28.10
2023-03-02T08:27:28.675Z,24.63
2023-03-02T08:30:30.127Z,24.60
2023-03-02T08:33:32.732Z,27.10
2023-03-02T08:36:34.318Z,28.17
2023-03-02T08:39:36.045Z,28.00
2023-03-02T08:42:37.558Z,30.23
2023-03-02T08:45:38.861Z,25.60
2023-03-02T08:48:41.333Z,28.13
2023-03-02T08:51:42.968Z,25.98
2023-03-02T08:54:44.494Z,25.33
2023-03-02T08:57:46.131Z,27.30
2023-03-02T09:00:47.512Z,27.90
2023-03-02T09:03:50.077Z,30.05
2023-03-02T09:06:51.450Z,28.73
2023-03-02T09:09:52.916Z,28.02
2023-03-02T09:12:54.258Z,27.03
2023-03-02T09:15:55.737Z,24.40
2023-03-02T09:18:57.680Z,29.23
2023-03-02T09:21:58.979Z,24.65
2023-03-02T09:25:00.248Z,25.73
2023-03-02T09:28:01.712Z,27.63
2023-03-02T09:31:05.190Z,24.37
2023-03-02T09:34:07.197Z,23.52
2023-03-02T09:37:08.505Z,24.45
2023-03-02T09:40:17.155Z,24.13
2023-03-02T09:43:32.680Z,23.93
2023-03-02T09:46:43.603Z,26.57
2023-03-02T09:49:57.299Z,29.27
2023-03-02T09:53:18.111Z,25.98
2023-03-02T09:56:20.733Z,24.90
2023-03-02T09:59:26.098Z,24.80
2023-03-02T10:02:30.781Z,27.53
2023-03-02T10:05:40.123Z,24.50
2023-03-02T10:08:42.666Z,26.45
2023-03-02T10:12:04.006Z,29.30
2023-03-02T10:15:12.424Z,25.57
2023-03-02T10:18:20.426Z,27.67
2023-03-02T10:21:27.747Z,25.80
2023-03-02T10:24:35.400Z,27.92
2023-03-02T10:27:39.068Z,25.67
2023-03-02T10:30:41.212Z,25.07
2023-03-02T10:33:42.924Z,25.27
2023-03-02T10:36:47.049Z,24.65
2023-03-02T10:39:48.973Z,23.25
2023-03-02T10:42:50.488Z,24.65
2023-03-02T10:45:59.504Z,23.03
2023-03-02T10:49:00.873Z,25.50
2023-03-02T10:52:04.966Z,23.85
2023-03-02T10:55:13.531Z,26.00
2023-03-02T10:58:25.199Z,23.60
2023-03-02T11:01:26.770Z,26.10
2023-03-02T11:04:28.632Z,21.73
2023-03-02T11:07:30.680Z,26.15
2023-03-02T11:10:34.925Z,20.83
2023-03-02T11:13:38.117Z,21.25
2023-03-02T11:16:39.520Z,22.03
2023-03-02T11:19:41.823Z,22.97
2023-03-02T11:22:52.585Z,21.83
2023-03-02T11:25:57.287Z,20.65
2023-03-02T11:29:03.387Z,20.73
2023-03-02T11:32:12.931Z,19.77
2023-03-02T11:35:24.642Z,19.53
2023-03-02T11:38:30.119Z,18.50
2023-03-02T11:41:35.238Z,18.83
2023-03-02T11:44:36.850Z,18.42
2023-03-02T11:47:40.517Z,18.60
2023-03-02T11:50:50.924Z,18.37
2023-03-02T11:53:58.009Z,18.27
2023-03-02T11:56:59.577Z,17.10
2023-03-02T12:00:15.792Z,17.27
2023-03-02T12:03:22.994Z,15.70
2023-03-02T12:06:29.002Z,18.13
2023-03-02T12:09:34.841Z,17.15
2023-03-02T12:12:42.240Z,18.67
2023-03-02T12:15:46.009Z,17.95
2023-03-02T12:18:48.409Z,18.30
2023-03-02T12:21:58.322Z,18.97
2023-03-02T12:25:04.654Z,16.77
2023-03-02T12:28:24.535Z,17.60
2023-03-02T12:31:26.803Z,17.77
2023-03-02T12:34:34.936Z,18.00
2023-03-02T12:37:44.752Z,17.30
2023-03-02T12:41:01.732Z,16.70
2023-03-02T12:44:18.932Z,17.08
2023-03-02T12:47:26.436Z,16.83
2023-03-02T12:50:31.750Z,19.27
2023-03-02T12:53:33.225Z,16.63
2023-03-02T12:56:35.508Z,17.15
2023-03-02T12:59:37.059Z,16.63
2023-03-02T13:02:46.167Z,19.45
2023-03-02T13:05:47.633Z,15.27
2023-03-02T13:08:52.439Z,18.60
2023-03-02T13:11:54.633Z,16.92
2023-03-02T13:14:57.755Z,19.83
2023-03-02T13:17:59.774Z,16.17
2023-03-02T13:21:03.892Z,17.13
2023-03-02T13:24:25.969Z,18.43
2023-03-02T13:27:28.580Z,17.52
2023-03-02T13:30:31.731Z,17.40
2023-03-02T13:33:35.256Z,16.70
2023-03-02T13:36:38.399Z,18.93
2023-03-02T13:39:39.750Z,15.43
2023-03-02T13:42:41.852Z,14.43
2023-03-02T13:45:51.882Z,16.23
2023-03-02T13:49:04.011Z,15.40
2023-03-02T13:52:21.563Z,17.20
2023-03-02T13:55:23.692Z,16.20
2023-03-02T13:58:27.414Z,18.58
2023-03-02T14:01:29.406Z,16.80
2023-03-02T14:04:30.956Z,19.60
2023-03-02T14:07:32.286Z,18.63
2023-03-02T14:10:33.727Z,19.53
2023-03-02T14:13:40.031Z,18.60
2023-03-02T14:16:41.310Z,20.65
2023-03-02T14:19:42.823Z,18.85
2023-03-02T14:22:44.329Z,17.33
2023-03-02T14:25:46.109Z,18.53
2023-03-02T14:28:53.658Z,17.40
2023-03-02T14:32:04.078Z,17.85
2023-03-02T14:35:08.543Z,19.98
2023-03-02T14:38:11.074Z,19.92
2023-03-02T14:41:16.122Z,18.33
2023-03-02T14:44:18.267Z,18.83
2023-03-02T14:47:21.057Z,18.60
2023-03-02T14:50:22.933Z,17.60
2023-03-02T14:53:29.669Z,16.80
2023-03-02T14:56:31.494Z,19.10
2023-03-02T14:59:33.603Z,16.97
2023-03-02T15:02:35.195Z,18.08
2023-03-02T15:05:36.610Z,17.52
2023-03-02T15:08:38.135Z,18.25
2023-03-02T15:11:39.470Z,17.10
2023-03-02T15:14:41.586Z,18.93
2023-03-02T15:17:42.977Z,18.45
2023-03-02T15:20:44.426Z,16.88
2023-03-02T15:23:45.984Z,17.70
2023-03-02T15:26:47.423Z,16.67
2023-03-02T15:29:50.070Z,18.43
2023-03-02T15:32:52.479Z,16.77
2023-03-02T15:35:55.521Z,17.70
2023-03-02T15:38:57.130Z,16.45
2023-03-02T15:41:58.437Z,18.03
2023-03-02T15:45:00.733Z,14.70
2023-03-02T15:48:02.159Z,14.85
2023-03-02T15:51:06.315Z,13.85
2023-03-02T15:54:10.057Z,15.93
2023-03-02T15:57:11.844Z,15.50
2023-03-02T16:00:15.743Z,14.87
2023-03-02T16:03:18.488Z,15.52
2023-03-02T16:06:20.008Z,15.15
2023-03-02T16:09:21.436Z,14.30
2023-03-02T16:12:24.076Z,14.53
2023-03-02T16:15:25.998Z,13.53
2023-03-02T16:18:27.379Z,15.45
2023-03-02T16:21:29.793Z,12.70
2023-03-02T16:24:31.224Z,13.45
2023-03-02T16:27:32.528Z,12.57
2023-03-02T16:30:35.695Z,13.07
2023-03-02T16:33:37.412Z,13.27
2023-03-02T16:36:40.274Z,12.90
2023-03-02T16:39:41.877Z,13.80
2023-03-02T16:42:43.324Z,13.25
2023-03-02T16:45:45.574Z,13.07
2023-03-02T16:48:48.516Z,11.95
2023-03-02T16:51:49.940Z,13.10
2023-03-02T16:54:51.283Z,13.47
2023-03-02T16:57:53.079Z,12.88
2023-03-02T17:00:55.942Z,13.05
2023-03-02T17:03:57.346Z,13.60
2023-03-02T17:07:00.806Z,12.25
2023-03-02T17:10:02.612Z,14.63
2023-03-02T17:13:04.584Z,13.50
2023-03-02T17:16:07.324Z,12.23
2023-03-02T17:19:08.622Z,12.48
2023-03-02T17:22:10.070Z,12.00
2023-03-02T17:25:12.410Z,13.27
2023-03-02T17:28:14.254Z,12.65
2023-03-02T17:31:16.515Z,12.18
2023-03-02T17:34:17.976Z,12.35
2023-03-02T17:37:19.327Z,12.30
2023-03-02T17:40:20.772Z,15.00
2023-03-02T17:43:22.257Z,11.82
2023-03-02T17:46:25.866Z,12.95
2023-03-02T17:49:27.248Z,11.65
2023-03-02T17:52:29.166Z,12.77
2023-03-02T17:55:30.510Z,12.77
2023-03-02T17:58:44.318Z,13.10
2023-03-02T18:01:47.371Z,12.93
2023-03-02T18:04:48.901Z,14.32
2023-03-02T18:07:52.070Z,14.50
2023-03-02T18:10:53.412Z,14.30
2023-03-02T18:13:55.223Z,12.43
2023-03-02T18:16:57.564Z,14.30
2023-03-02T18:19:58.913Z,15.20
2023-03-02T18:23:00.905Z,12.32
2023-03-02T18:26:02.394Z,14.17
2023-03-02T18:29:03.958Z,12.73
2023-03-02T18:32:10.031Z,13.75
2023-03-02T18:35:11.773Z,14.57
2023-03-02T18:38:13.121Z,13.63
2023-03-02T18:41:14.498Z,14.63
2023-03-02T18:44:17.149Z,12.25
2023-03-02T18:47:19.230Z,14.20
2023-03-02T18:50:20.970Z,12.18
2023-03-02T18:53:22.296Z,14.90
2023-03-02T18:56:24.574Z,12.87
2023-03-02T18:59:25.988Z,13.27
2023-03-02T19:02:28.292Z,13.27
2023-03-02T19:05:29.797Z,13.35
2023-03-02T19:08:31.969Z,15.17
2023-03-02T19:11:33.314Z,12.40
2023-03-02T19:14:34.654Z,14.45
2023-03-02T19:17:37.917Z,15.35
2023-03-02T19:20:39.240Z,13.80
2023-03-02T19:23:41.119Z,14.60
2023-03-02T19:26:42.466Z,16.00
2023-03-02T19:29:43.766Z,16.73
2023-03-02T19:32:46.505Z,14.75
2023-03-02T19:35:47.881Z,18.70
2023-03-02T19:38:49.262Z,18.30
2023-03-02T19:41:50.773Z,16.03
2023-03-02T19:44:52.314Z,17.52
2023-03-02T19:47:57.478Z,17.00
2023-03-02T19:50:59.094Z,16.80
2023-03-02T19:54:00.655Z,15.70
2023-03-02T19:57:02.834Z,14.17
2023-03-02T20:00:04.435Z,16.77
2023-03-02T20:03:07.843Z,16.33
2023-03-02T20:06:09.323Z,17.88
2023-03-02T20:09:13.778Z,17.50
2023-03-02T20:12:15.059Z,17.57
2023-03-02T20:15:17.096Z,15.55
2023-03-02T20:18:19.996Z,15.85
2023-03-02T20:21:25.122Z,15.85
2023-03-02T20:24:26.433Z,15.63
2023-03-02T20:27:27.907Z,14.97
2023-03-02T20:30:32.572Z,13.70
2023-03-02T20:33:38.247Z,14.35
2023-03-02T20:36:39.586Z,14.75
2023-03-02T20:39:47.231Z,15.17
2023-03-02T20:42:48.646Z,15.53
2023-03-02T20:45:50.236Z,13.80
2023-03-02T20:48:52.645Z,13.43
2023-03-02T20:51:55.986Z,14.20
2023-03-02T20:54:57.498Z,12.97
2023-03-02T20:58:00.485Z,13.27
2023-03-02T21:01:01.893Z,13.75
2023-03-02T21:04:04.236Z,13.55
2023-03-02T21:07:05.555Z,13.98
2023-03-02T21:10:12.853Z,13.80
2023-03-02T21:13:14.441Z,14.33
2023-03-02T21:16:19.076Z,13.60
2023-03-02T21:19:21.313Z,15.20
2023-03-02T21:22:22.592Z,15.27
2023-03-02T21:25:23.929Z,16.00
2023-03-02T21:28:25.549Z,16.73
2023-03-02T21:31:26.924Z,16.20
2023-03-02T21:34:29.464Z,15.82
2023-03-02T21:37:30.769Z,15.55
2023-03-02T21:40:35.596Z,16.20
2023-03-02T21:43:37.158Z,16.27
2023-03-02T21:46:38.903Z,16.65
2023-03-02T21:49:41.106Z,15.32
2023-03-02T21:52:42.471Z,15.52
2023-03-02T21:55:45.023Z,18.53
2023-03-02T21:58:47.603Z,15.93
2023-03-02T22:01:49.094Z,17.00
2023-03-02T22:04:51.018Z,16.38
2023-03-02T22:07:52.457Z,18.15
2023-03-02T22:10:53.791Z,17.40
2023-03-02T22:13:58.129Z,18.07
2023-03-02T22:16:59.446Z,15.85
2023-03-02T22:20:01.446Z,17.25
2023-03-02T22:23:11.041Z,18.50
2023-03-02T22:26:15.616Z,16.57
2023-03-02T22:29:21.816Z,17.33
2023-03-02T22:32:26.335Z,16.35
2023-03-02T22:35:28.342Z,18.05
2023-03-02T22:38:31.055Z,16.30
2023-03-02T22:41:32.487Z,16.50
2023-03-02T22:44:34.316Z,16.43
2023-03-02T22:47:35.872Z,14.40
2023-03-02T22:50:40.777Z,16.88
2023-03-02T22:53:47.369Z,15.27
2023-03-02T22:56:50.499Z,18.03
2023-03-02T23:00:13.513Z,15.17
2023-03-02T23:03:17.640Z,15.30
2023-03-02T23:06:28.976Z,16.60
2023-03-02T23:09:33.431Z,15.27
2023-03-02T23:12:35.053Z,18.57
2023-03-02T23:15:36.748Z,17.20
2023-03-02T23:18:38.233Z,17.30
2023-03-02T23:21:44.401Z,16.95
2023-03-02T23:24:45.981Z,18.08
2023-03-02T23:27:47.463Z,15.23
2023-03-02T23:30:49.332Z,16.60
2023-03-02T23:33:50.688Z,16.95
2023-03-02T23:36:52.792Z,18.15
2023-03-02T23:39:54.428Z,17.52
2023-03-02T23:42:55.949Z,19.93
2023-03-02T23:45:57.427Z,17.93
2023-03-02T23:48:58.867Z,15.85
2023-03-02T23:52:01.079Z,18.25
2023-03-02T23:55:02.867Z,17.65
2023-03-02T23:58:04.329Z,19.77
